Shiseimaru — JD2936 — position and weather

sailwx.info

Track history (hours):
 
Tides and Currents Weather Stations Pressure Air Temp Water Temp Dewpoint Dewpoint Depression Visibility Wind Speed Wind Dir Waves Ship Positions

Shiseimaru

Last reported at 2017-Oct-12 11:43 UTC. Time now 2017-Oct-19 00:22 UTC.
Position N 34°52' E 139°49'.

Length 73 m; draft 3.4 m.

Type: Cargo ship. MMSI: 431001029.

Date/timePositionNaut miles runAvg speedWind from/ knotsBaromVisibWave heightAir tempDewpointWater temp
2017-Oct-12 11:43N 34°52' E 139°49'612.1
2017-Oct-12 11:13N 34°57' E 139°44'210.9
2017-Oct-12 11:00N 34°59' E 139°44'510.4
2017-Oct-12 10:30N 35°04' E 139°44'510.3
2017-Oct-12 10:00N 35°09' E 139°45'510.4
2017-Oct-12 09:30N 35°14' E 139°47'510.5
2017-Oct-12 09:00N 35°19' E 139°43'510.3
2017-Oct-12 08:30N 35°24' E 139°43'510.0
2017-Oct-12 08:00N 35°27' E 139°48'252 5.1
2017-Oct-10 06:18N 33°59' E 135°00'411.2
2017-Oct-10 05:59N 34°02' E 135°00'611.2
2017-Oct-10 05:27N 34°08' E 134°59'511.1
2017-Oct-10 05:00N 34°13' E 134°59'7 9.8
2017-Oct-10 04:19N 34°20' E 134°59'3 8.9
2017-Oct-10 04:00N 34°23' E 135°00'510.3
2017-Oct-10 03:30N 34°28' E 135°01'5 9.6
2017-Oct-10 03:00N 34°32' E 135°03'4 7.7
2017-Oct-10 02:31N 34°36' E 135°03'12 0.6
2017-Oct-09 05:38N 34°40' E 134°49'2 9.6
2017-Oct-09 05:27N 34°41' E 134°51'  
Track history (hours):
 
Tides and Currents Weather Stations Pressure Air Temp Water Temp Dewpoint Dewpoint Depression Visibility Wind Speed Wind Dir Waves Ship Positions

Shiseimaru

Last reported at 2017-Oct-12 11:43 UTC. Time now 2017-Oct-19 00:22 UTC.
Position N 34°52' E 139°49'.

Length 73 m; draft 3.4 m.

Type: Cargo ship. MMSI: 431001029.

Date/timePositionNaut miles runAvg speedWind from/ knotsBaromVisibWave heightAir tempDewpointWater temp
2017-Oct-12 11:43N 34°52' E 139°49'612.1
2017-Oct-12 11:13N 34°57' E 139°44'210.9
2017-Oct-12 11:00N 34°59' E 139°44'510.4
2017-Oct-12 10:30N 35°04' E 139°44'510.3
2017-Oct-12 10:00N 35°09' E 139°45'510.4
2017-Oct-12 09:30N 35°14' E 139°47'510.5
2017-Oct-12 09:00N 35°19' E 139°43'510.3
2017-Oct-12 08:30N 35°24' E 139°43'510.0
2017-Oct-12 08:00N 35°27' E 139°48'252 5.1
2017-Oct-10 06:18N 33°59' E 135°00'411.2
2017-Oct-10 05:59N 34°02' E 135°00'611.2
2017-Oct-10 05:27N 34°08' E 134°59'511.1
2017-Oct-10 05:00N 34°13' E 134°59'7 9.8
2017-Oct-10 04:19N 34°20' E 134°59'3 8.9
2017-Oct-10 04:00N 34°23' E 135°00'510.3
2017-Oct-10 03:30N 34°28' E 135°01'5 9.6
2017-Oct-10 03:00N 34°32' E 135°03'4 7.7
2017-Oct-10 02:31N 34°36' E 135°03'12 0.6
2017-Oct-09 05:38N 34°40' E 134°49'2 9.6
2017-Oct-09 05:27N 34°41' E 134°51'  

Dump ship's entire track history